Wyoming, Pennsylvania
Current Conditions -  °F | °C
As of 4:54 PM on Monday 20 Oct 2014 (Local Time) from KAVP Reporting Station
Broken Clouds Broken Clouds  
Wind Chill: 57°   Ceiling: 10000
Heat Index: 57°   Visibility: 10mi
Dew Point: 35°   Wind: 8mph
Humidity: 44%   Direction: 180°S
Pressure: 29.93"   Gusts: NA
Location:  41.31°N, 75.84°W
Report Text: KAVP 202054Z AUTO 18007KT 10SM BKN100 14/02 A2993 RMK AO2 SLP135 T01390017 56012
Loading
Personal Weather Stations






























Interactive Weather Map
Tropical Storm Tracking
New forecast layout! Learn more

10-Day Weather Forecast

Advertisements
Track Severe Weather on mobile